Time;durP1;ratioP1;P1;durP2;ratioP2;P2;SDS_P1;SDS_P2;PMS_P1;PMS_P2;Temp;Humidity;BMP_temperature;BMP_pressure;BME280_temperature;BME280_humidity;BME280_pressure;Samples;Min_cycle;Max_cycle;Signal;HPM_P1;HPM_P2
2023/04/21 00:00:24;;;;;;;;;;;;;;;17.76;nan;102176.91;5051682;28;19917;-85
2023/04/21 00:02:54;;;;;;;;;;;;;;;17.73;nan;102171.22;5036182;28;19950;-85
2023/04/21 00:05:19;;;;;;;;;;;;;;;17.70;nan;102171.75;5044527;28;19921;-85
2023/04/21 00:07:51;;;;;;;;;;;;;;;17.69;nan;102168.22;5048313;28;19929;-85
2023/04/21 00:10:16;;;;;;;;;;;;;;;17.69;nan;102170.09;5047660;28;20348;-86
2023/04/21 00:12:42;;;;;;;;;;;;;;;17.66;nan;102165.19;5051333;28;19925;-85
2023/04/21 00:15:07;;;;;;;;;;;;;;;17.65;nan;102172.50;5050199;28;19917;-85
2023/04/21 00:17:33;;;;;;;;;;;;;;;17.64;nan;102165.44;5049774;28;19960;-86
2023/04/21 00:19:58;;;;;;;;;;;;;;;17.60;nan;102172.47;5046596;28;19978;-85
2023/04/21 00:22:24;;;;;;;;;;;;;;;17.58;nan;102171.88;5047657;28;19924;-85
2023/04/21 00:24:49;;;;;;;;;;;;;;;17.56;nan;102170.53;5043604;28;20069;-85
2023/04/21 00:27:15;;;;;;;;;;;;;;;17.52;nan;102175.66;5049010;28;19916;-85
2023/04/21 00:29:40;;;;;;;;;;;;;;;17.42;nan;102172.88;5050349;28;20266;-85
2023/04/21 00:32:10;;;;;;;;;;;;;;;17.32;nan;102165.47;5046965;28;20073;-85
2023/04/21 00:34:36;;;;;;;;;;;;;;;17.27;nan;102172.75;5047649;28;20443;-85
2023/04/21 00:37:01;;;;;;;;;;;;;;;17.19;nan;102172.13;5047781;28;19932;-85
2023/04/21 00:39:27;;;;;;;;;;;;;;;17.15;nan;102173.72;5048887;28;20027;-85
2023/04/21 00:41:52;;;;;;;;;;;;;;;17.14;nan;102171.28;5047628;28;19921;-85
2023/04/21 00:44:17;;;;;;;;;;;;;;;17.13;nan;102170.47;5045828;28;19917;-85
2023/04/21 00:46:43;;;;;;;;;;;;;;;17.12;nan;102168.00;5047255;28;19970;-85
2023/04/21 00:49:08;;;;;;;;;;;;;;;17.13;nan;102172.34;5041090;28;19924;-85
2023/04/21 00:51:35;;;;;;;;;;;;;;;17.13;nan;102167.75;5047996;28;19920;-85
2023/04/21 00:54:02;;;;;;;;;;;;;;;17.13;nan;102170.47;5041962;28;19916;-85
2023/04/21 00:56:30;;;;;;;;;;;;;;;17.10;nan;102170.97;5042059;28;19924;-85
2023/04/21 00:58:56;;;;;;;;;;;;;;;17.08;nan;102166.91;5048100;28;19925;-85
2023/04/21 01:01:22;;;;;;;;;;;;;;;17.06;nan;102167.16;5043959;28;19970;-85
2023/04/21 01:03:49;;;;;;;;;;;;;;;17.03;nan;102164.13;5039740;28;20357;-85
2023/04/21 01:06:16;;;;;;;;;;;;;;;16.98;nan;102169.50;5044207;28;19917;-86
2023/04/21 01:08:41;;;;;;;;;;;;;;;16.97;nan;102168.69;5047632;28;19986;-85
2023/04/21 01:11:10;;;;;;;;;;;;;;;16.96;nan;102172.47;5049457;28;20553;-85
2023/04/21 01:13:36;;;;;;;;;;;;;;;16.95;nan;102167.31;5040644;28;19960;-85
2023/04/21 01:16:03;;;;;;;;;;;;;;;16.93;nan;102162.16;5043139;28;19960;-85
2023/04/21 01:18:29;;;;;;;;;;;;;;;16.92;nan;102166.75;5039602;28;19928;-85
2023/04/21 01:20:55;;;;;;;;;;;;;;;16.91;nan;102170.53;5040381;28;20282;-85
2023/04/21 01:23:20;;;;;;;;;;;;;;;16.90;nan;102163.47;5047466;28;20003;-84
2023/04/21 01:25:46;;;;;;;;;;;;;;;16.89;nan;102161.03;5048104;28;20027;-85
2023/04/21 01:28:11;;;;;;;;;;;;;;;16.86;nan;102161.53;5050239;28;19920;-85
2023/04/21 01:30:37;;;;;;;;;;;;;;;16.83;nan;102162.84;5048947;28;19966;-85
2023/04/21 01:33:02;;;;;;;;;;;;;;;16.81;nan;102153.34;5045970;28;19920;-85
2023/04/21 01:35:28;;;;;;;;;;;;;;;16.78;nan;102154.69;5052729;28;19916;-85
2023/04/21 01:37:53;;;;;;;;;;;;;;;16.76;nan;102153.31;5047841;28;20483;-85
2023/04/21 01:40:18;;;;;;;;;;;;;;;16.72;nan;102154.91;5037608;28;19917;-85
2023/04/21 01:42:44;;;;;;;;;;;;;;;16.69;nan;102155.38;5048219;28;20004;-85
2023/04/21 01:45:10;;;;;;;;;;;;;;;16.67;nan;102146.72;5041798;28;20021;-85
2023/04/21 01:47:35;;;;;;;;;;;;;;;16.66;nan;102145.03;5046396;28;19921;-85
2023/04/21 01:50:00;;;;;;;;;;;;;;;16.64;nan;102148.00;5045370;28;20059;-85
2023/04/21 01:52:26;;;;;;;;;;;;;;;16.63;nan;102155.31;5046303;28;19916;-85
2023/04/21 01:54:51;;;;;;;;;;;;;;;16.61;nan;102143.94;5048865;28;19935;-84
2023/04/21 01:57:17;;;;;;;;;;;;;;;16.60;nan;102145.00;5049520;28;19936;-85
2023/04/21 01:59:42;;;;;;;;;;;;;;;16.60;nan;102146.88;5047685;28;19924;-85
2023/04/21 02:02:08;;;;;;;;;;;;;;;16.60;nan;102147.72;5045773;28;20382;-85
2023/04/21 02:04:34;;;;;;;;;;;;;;;16.57;nan;102145.50;5049292;28;19932;-85
2023/04/21 02:06:59;;;;;;;;;;;;;;;16.55;nan;102155.78;5049008;28;19917;-85
2023/04/21 02:09:25;;;;;;;;;;;;;;;16.54;nan;102143.31;5047717;28;19924;-85
2023/04/21 02:11:50;;;;;;;;;;;;;;;16.52;nan;102145.47;5043773;28;20104;-85
2023/04/21 02:14:16;;;;;;;;;;;;;;;16.51;nan;102148.41;5048273;28;19916;-86
2023/04/21 02:16:41;;;;;;;;;;;;;;;16.48;nan;102149.72;5047658;28;19943;-84
2023/04/21 02:19:06;;;;;;;;;;;;;;;16.45;nan;102146.72;5048158;28;20105;-86
2023/04/21 02:21:32;;;;;;;;;;;;;;;16.43;nan;102144.28;5041422;28;20062;-85
2023/04/21 02:23:57;;;;;;;;;;;;;;;16.43;nan;102146.16;5049474;28;19925;-85
2023/04/21 02:26:22;;;;;;;;;;;;;;;16.42;nan;102144.53;5053306;28;19923;-85
2023/04/21 02:28:49;;;;;;;;;;;;;;;16.40;nan;102146.66;5054026;28;20619;-85
2023/04/21 02:31:14;;;;;;;;;;;;;;;16.40;nan;102152.91;5040244;28;20016;-85
2023/04/21 02:33:40;;;;;;;;;;;;;;;16.38;nan;102149.63;5059490;28;19999;-85
2023/04/21 02:36:05;;;;;;;;;;;;;;;16.36;nan;102151.78;5046376;28;20034;-85
2023/04/21 02:38:31;;;;;;;;;;;;;;;16.34;nan;102153.91;5051503;28;19920;-85
2023/04/21 02:40:56;;;;;;;;;;;;;;;16.32;nan;102151.44;5052383;28;20202;-85
2023/04/21 02:43:22;;;;;;;;;;;;;;;16.31;nan;102151.69;5051881;28;19921;-85
2023/04/21 02:45:47;;;;;;;;;;;;;;;16.29;nan;102153.84;5052555;28;19925;-84
2023/04/21 02:48:12;;;;;;;;;;;;;;;16.26;nan;102151.63;5052625;28;19920;-85
2023/04/21 02:50:41;;;;;;;;;;;;;;;16.25;nan;102150.00;5041287;28;19936;-84
2023/04/21 02:53:07;;;;;;;;;;;;;;;16.22;nan;102150.50;5053192;28;19917;-85
2023/04/21 02:55:32;;;;;;;;;;;;;;;16.19;nan;102146.44;5046205;28;20463;-85
2023/04/21 02:57:57;;;;;;;;;;;;;;;16.17;nan;102150.47;5053867;28;19920;-85
2023/04/21 03:00:23;;;;;;;;;;;;;;;16.12;nan;102145.78;5038988;28;19917;-85
2023/04/21 03:02:48;;;;;;;;;;;;;;;16.09;nan;102151.69;5046679;28;19947;-85
2023/04/21 03:05:14;;;;;;;;;;;;;;;16.08;nan;102149.25;5044937;28;20023;-85
2023/04/21 03:07:39;;;;;;;;;;;;;;;16.06;nan;102146.78;5050636;28;20062;-85
2023/04/21 03:10:05;;;;;;;;;;;;;;;16.04;nan;102142.72;5047748;28;19917;-85
2023/04/21 03:12:32;;;;;;;;;;;;;;;16.00;nan;102142.41;5051175;28;20442;-85
2023/04/21 03:14:58;;;;;;;;;;;;;;;15.97;nan;102140.97;5051180;28;20383;-85
2023/04/21 03:17:24;;;;;;;;;;;;;;;15.95;nan;102139.59;5052806;28;20072;-85
2023/04/21 03:19:49;;;;;;;;;;;;;;;15.94;nan;102141.50;5050742;28;19921;-85
2023/04/21 03:22:15;;;;;;;;;;;;;;;15.94;nan;102136.09;5057248;28;20156;-85
2023/04/21 03:24:40;;;;;;;;;;;;;;;15.91;nan;102128.47;5046461;28;20019;-85
2023/04/21 03:27:05;;;;;;;;;;;;;;;15.92;nan;102132.81;5051632;28;19923;-85
2023/04/21 03:29:31;;;;;;;;;;;;;;;15.91;nan;102128.47;5050637;28;20370;-85
2023/04/21 03:31:56;;;;;;;;;;;;;;;15.90;nan;102134.94;5048694;28;19931;-85
2023/04/21 03:34:21;;;;;;;;;;;;;;;15.86;nan;102131.13;5049888;28;19975;-84
2023/04/21 03:36:47;;;;;;;;;;;;;;;15.84;nan;102135.16;5045928;28;19928;-85
2023/04/21 03:39:12;;;;;;;;;;;;;;;15.81;nan;102131.06;5040635;28;19937;-86
2023/04/21 03:41:37;;;;;;;;;;;;;;;15.81;nan;102130.25;5047293;28;20375;-85
2023/04/21 03:44:03;;;;;;;;;;;;;;;15.79;nan;102135.88;5052086;28;19940;-85
2023/04/21 03:46:28;;;;;;;;;;;;;;;15.81;nan;102135.66;5050190;28;20394;-85
2023/04/21 03:48:53;;;;;;;;;;;;;;;15.79;nan;102130.47;5052825;28;19961;-84
2023/04/21 03:51:19;;;;;;;;;;;;;;;15.78;nan;102126.13;5050229;28;19916;-86
2023/04/21 03:53:44;;;;;;;;;;;;;;;15.77;nan;102129.91;5047009;28;20015;-84
2023/04/21 03:56:09;;;;;;;;;;;;;;;15.75;nan;102123.13;5051179;28;20011;-85
2023/04/21 03:58:35;;;;;;;;;;;;;;;15.74;nan;102121.47;5049811;28;20043;-84
2023/04/21 04:01:00;;;;;;;;;;;;;;;15.72;nan;102132.53;5041197;28;19949;-84
2023/04/21 04:03:26;;;;;;;;;;;;;;;15.71;nan;102128.19;5042684;28;19917;-84
2023/04/21 04:05:51;;;;;;;;;;;;;;;15.69;nan;102124.94;5049670;28;19920;-85
2023/04/21 04:08:17;;;;;;;;;;;;;;;15.67;nan;102127.06;5052742;28;20386;-85
2023/04/21 04:10:42;;;;;;;;;;;;;;;15.66;nan;102128.13;5043047;28;19924;-85
2023/04/21 04:13:07;;;;;;;;;;;;;;;15.64;nan;102133.78;5052851;28;19927;-85
2023/04/21 04:15:32;;;;;;;;;;;;;;;15.65;nan;102129.22;5045259;28;19924;-85
2023/04/21 04:17:58;;;;;;;;;;;;;;;15.64;nan;102130.28;5050676;28;19921;-85
2023/04/21 04:20:23;;;;;;;;;;;;;;;15.64;nan;102132.97;5048897;28;19917;-85
2023/04/21 04:22:49;;;;;;;;;;;;;;;15.65;nan;102137.31;5051414;28;20382;-84
2023/04/21 04:25:15;;;;;;;;;;;;;;;15.65;nan;102129.22;5051144;28;19924;-85
2023/04/21 04:27:43;;;;;;;;;;;;;;;15.65;nan;102126.50;5052339;28;19928;-84
2023/04/21 04:30:09;;;;;;;;;;;;;;;15.67;nan;102132.47;5051395;28;19917;-85
2023/04/21 04:32:40;;;;;;;;;;;;;;;15.69;nan;102130.34;5055635;28;19923;-85
2023/04/21 04:35:08;;;;;;;;;;;;;;;15.71;nan;102130.91;5043138;28;19924;-84
2023/04/21 04:37:36;;;;;;;;;;;;;;;15.73;nan;102136.88;5049212;28;19925;-84
2023/04/21 04:40:04;;;;;;;;;;;;;;;15.74;nan;102127.69;5042413;28;20410;-85
2023/04/21 04:42:51;;;;;;;;;;;;;;;15.74;nan;102130.41;5052865;28;20275;-85
2023/04/21 04:45:37;;;;;;;;;;;;;;;15.77;nan;102132.59;5055330;28;19924;-84
2023/04/21 04:48:12;;;;;;;;;;;;;;;15.80;nan;102132.13;5048444;28;19933;-85
2023/04/21 04:50:42;;;;;;;;;;;;;;;15.83;nan;102131.63;5048101;28;19927;-85
2023/04/21 04:53:09;;;;;;;;;;;;;;;15.87;nan;102137.34;5049446;28;20375;-85
2023/04/21 04:55:40;;;;;;;;;;;;;;;15.90;nan;102137.66;5051684;28;19916;-85
2023/04/21 04:58:06;;;;;;;;;;;;;;;15.94;nan;102132.56;5043154;28;19931;-85
2023/04/21 05:00:31;;;;;;;;;;;;;;;15.98;nan;102137.25;5049951;28;19996;-85
2023/04/21 05:02:56;;;;;;;;;;;;;;;16.02;nan;102135.66;5048636;28;19917;-85
2023/04/21 05:05:23;;;;;;;;;;;;;;;16.06;nan;102140.56;5050422;28;19920;-85
2023/04/21 05:07:49;;;;;;;;;;;;;;;16.10;nan;102141.69;5049405;28;21291;-85
2023/04/21 05:13:19;;;;;;;;;;;;;;;16.19;nan;102138.31;5000611;28;20572;-85
2023/04/21 05:15:44;;;;;;;;;;;;;;;16.25;nan;102134.59;5040208;28;20003;-85
2023/04/21 05:18:10;;;;;;;;;;;;;;;16.32;nan;102145.22;5049747;28;19956;-85
2023/04/21 05:21:06;;;;;;;;;;;;;;;16.38;nan;102149.63;5049284;28;19920;-85
2023/04/21 05:23:33;;;;;;;;;;;;;;;16.46;nan;102156.47;4995034;28;20043;-85
2023/04/21 05:25:58;;;;;;;;;;;;;;;16.51;nan;102157.34;5042673;28;20529;-85
2023/04/21 05:28:23;;;;;;;;;;;;;;;16.57;nan;102153.63;5049312;28;19979;-85
2023/04/21 05:30:49;;;;;;;;;;;;;;;16.64;nan;102164.25;5043590;28;19927;-85
2023/04/21 05:33:16;;;;;;;;;;;;;;;16.72;nan;102154.91;5038882;28;19921;-85
2023/04/21 05:35:45;;;;;;;;;;;;;;;16.76;nan;102153.31;5040916;28;20164;-85
2023/04/21 05:38:10;;;;;;;;;;;;;;;16.84;nan;102158.25;5046573;28;19920;-85
2023/04/21 05:40:35;;;;;;;;;;;;;;;16.88;nan;102154.00;5043121;28;20006;-85
2023/04/21 05:43:01;;;;;;;;;;;;;;;16.94;nan;102152.97;5042472;28;19923;-86
2023/04/21 05:45:26;;;;;;;;;;;;;;;17.02;nan;102157.88;5048930;28;19946;-85
2023/04/21 05:47:52;;;;;;;;;;;;;;;17.10;nan;102160.16;5047684;28;19925;-85
2023/04/21 05:50:17;;;;;;;;;;;;;;;17.20;nan;102156.69;5046348;28;19952;-85
2023/04/21 05:52:42;;;;;;;;;;;;;;;17.27;nan;102156.50;5047794;28;19921;-85
2023/04/21 05:55:08;;;;;;;;;;;;;;;17.37;nan;102156.56;5045118;28;19920;-85
2023/04/21 06:00:36;;;;;;;;;;;;;;;17.56;nan;102148.84;5040622;28;19924;-85
2023/04/21 06:03:02;;;;;;;;;;;;;;;17.64;nan;102149.19;5049445;28;19920;-85
2023/04/21 06:05:27;;;;;;;;;;;;;;;17.72;nan;102147.91;5043495;28;20638;-85
2023/04/21 06:07:55;;;;;;;;;;;;;;;17.78;nan;102147.69;5042788;28;20019;-86
2023/04/21 06:10:21;;;;;;;;;;;;;;;17.88;nan;102148.81;5040028;28;19931;-86
2023/04/21 06:12:46;;;;;;;;;;;;;;;18.00;nan;102144.00;5042780;28;19921;-86
2023/04/21 06:15:12;;;;;;;;;;;;;;;18.11;nan;102138.34;5042472;28;19920;-85
2023/04/21 06:17:37;;;;;;;;;;;;;;;18.21;nan;102143.00;5040281;28;19935;-85
2023/04/21 06:20:03;;;;;;;;;;;;;;;18.31;nan;102140.34;5041889;28;19923;-84
2023/04/21 06:22:28;;;;;;;;;;;;;;;18.43;nan;102143.63;5048940;28;19923;-85
2023/04/21 06:24:53;;;;;;;;;;;;;;;18.58;nan;102144.75;5042340;28;19932;-85
2023/04/21 06:27:19;;;;;;;;;;;;;;;18.69;nan;102136.41;5038644;28;20378;-85
2023/04/21 06:29:44;;;;;;;;;;;;;;;18.80;nan;102139.94;5036210;28;19921;-85
2023/04/21 06:32:10;;;;;;;;;;;;;;;18.92;nan;102137.78;5042356;28;20003;-86
2023/04/21 06:34:36;;;;;;;;;;;;;;;19.06;nan;102127.22;5041950;28;20463;-84
2023/04/21 06:37:01;;;;;;;;;;;;;;;19.21;nan;102131.78;5049544;28;19916;-84
2023/04/21 06:39:27;;;;;;;;;;;;;;;19.33;nan;102127.72;5050793;28;19921;-84
2023/04/21 06:41:53;;;;;;;;;;;;;;;19.44;nan;102131.25;5048609;28;19988;-86
2023/04/21 06:44:18;;;;;;;;;;;;;;;19.54;nan;102131.25;5041458;28;20453;-85
2023/04/21 06:46:43;;;;;;;;;;;;;;;19.67;nan;102134.50;5036988;28;20285;-86
2023/04/21 06:49:09;;;;;;;;;;;;;;;19.79;nan;102126.88;5046008;28;20410;-85
2023/04/21 06:51:35;;;;;;;;;;;;;;;19.91;nan;102124.63;5038122;28;20402;-85
2023/04/21 06:54:01;;;;;;;;;;;;;;;20.06;nan;102112.88;5043459;28;19935;-85
2023/04/21 06:56:27;;;;;;;;;;;;;;;20.20;nan;102120.16;5052939;28;19917;-85
2023/04/21 06:58:52;;;;;;;;;;;;;;;20.35;nan;102113.84;5046415;28;19928;-85
2023/04/21 07:01:18;;;;;;;;;;;;;;;20.51;nan;102120.06;5046110;28;19982;-85
2023/04/21 07:03:43;;;;;;;;;;;;;;;20.62;nan;102118.06;5043663;28;19917;-85
2023/04/21 07:06:09;;;;;;;;;;;;;;;20.77;nan;102117.97;5046240;28;19921;-85
2023/04/21 07:08:35;;;;;;;;;;;;;;;20.90;nan;102121.97;5041900;28;19975;-85
2023/04/21 07:11:00;;;;;;;;;;;;;;;21.00;nan;102117.22;5040878;28;20138;-85
2023/04/21 07:13:26;;;;;;;;;;;;;;;21.13;nan;102115.75;5046602;28;19960;-85
2023/04/21 07:15:51;;;;;;;;;;;;;;;21.25;nan;102112.72;5049128;28;20035;-85
2023/04/21 07:18:16;;;;;;;;;;;;;;;21.35;nan;102120.78;5043180;28;20015;-85
2023/04/21 07:20:42;;;;;;;;;;;;;;;21.48;nan;102122.84;5047338;28;19928;-85
2023/04/21 07:23:07;;;;;;;;;;;;;;;21.59;nan;102120.81;5049924;28;20402;-84
2023/04/21 07:25:32;;;;;;;;;;;;;;;21.70;nan;102125.06;5051118;28;19997;-85
2023/04/21 07:27:58;;;;;;;;;;;;;;;21.80;nan;102124.94;5050189;28;20003;-85
2023/04/21 07:30:23;;;;;;;;;;;;;;;21.86;nan;102123.78;5047408;28;20039;-85
2023/04/21 07:32:48;;;;;;;;;;;;;;;21.96;nan;102126.41;5048446;28;20394;-85
2023/04/21 07:35:14;;;;;;;;;;;;;;;22.09;nan;102124.09;5050232;28;19917;-85
2023/04/21 07:37:40;;;;;;;;;;;;;;;22.21;nan;102117.09;5042557;28;19921;-86
2023/04/21 07:40:08;;;;;;;;;;;;;;;22.35;nan;102122.66;5048116;28;19921;-85
2023/04/21 07:42:33;;;;;;;;;;;;;;;22.46;nan;102121.41;5049824;28;20305;-85
2023/04/21 07:45:01;;;;;;;;;;;;;;;22.57;nan;102116.59;5046513;28;19928;-85
2023/04/21 07:47:26;;;;;;;;;;;;;;;22.66;nan;102122.22;5046501;28;20011;-86
2023/04/21 07:49:52;;;;;;;;;;;;;;;22.77;nan;102124.47;5048236;28;20468;-85
2023/04/21 07:52:17;;;;;;;;;;;;;;;22.89;nan;102121.34;5051729;28;19924;-85
2023/04/21 07:54:43;;;;;;;;;;;;;;;23.00;nan;102117.34;5045758;28;20386;-85
2023/04/21 07:57:08;;;;;;;;;;;;;;;23.11;nan;102115.22;5046349;28;19968;-85
2023/04/21 07:59:34;;;;;;;;;;;;;;;23.22;nan;102111.22;5050309;28;19921;-85
2023/04/21 08:01:59;;;;;;;;;;;;;;;23.33;nan;102109.09;5038218;28;19925;-86
2023/04/21 08:04:24;;;;;;;;;;;;;;;23.44;nan;102111.34;5047806;28;19920;-86
2023/04/21 08:06:50;;;;;;;;;;;;;;;23.57;nan;102108.97;5049953;28;19920;-85
2023/04/21 08:09:15;;;;;;;;;;;;;;;23.70;nan;102098.03;5048786;28;21184;-85
2023/04/21 08:11:40;;;;;;;;;;;;;;;23.85;nan;102101.56;5050301;28;19920;-84
2023/04/21 08:14:08;;;;;;;;;;;;;;;23.99;nan;102105.13;5050188;28;20065;-85
2023/04/21 08:16:34;;;;;;;;;;;;;;;24.11;nan;102097.19;5047877;28;19935;-85
2023/04/21 08:18:59;;;;;;;;;;;;;;;24.25;nan;102092.50;5046559;28;19924;-85
2023/04/21 08:21:24;;;;;;;;;;;;;;;24.37;nan;102087.31;5048664;28;20424;-85
2023/04/21 08:23:50;;;;;;;;;;;;;;;24.51;nan;102084.53;5059442;28;20187;-85
2023/04/21 08:26:16;;;;;;;;;;;;;;;24.64;nan;102086.44;5046944;28;19925;-85
2023/04/21 08:28:41;;;;;;;;;;;;;;;24.73;nan;102081.00;5048567;28;20442;-86
2023/04/21 08:31:07;;;;;;;;;;;;;;;24.83;nan;102086.25;5048524;28;20012;-86
2023/04/21 08:33:33;;;;;;;;;;;;;;;24.94;nan;102086.78;5050267;28;19928;-86
2023/04/21 08:35:58;;;;;;;;;;;;;;;25.02;nan;102082.50;5044877;28;20425;-85
2023/04/21 08:38:23;;;;;;;;;;;;;;;25.10;nan;102081.75;5045660;28;19925;-85
2023/04/21 08:40:49;;;;;;;;;;;;;;;25.23;nan;102084.41;5048997;28;19921;-85
2023/04/21 08:43:14;;;;;;;;;;;;;;;25.35;nan;102089.31;5045481;28;20198;-85
2023/04/21 08:45:40;;;;;;;;;;;;;;;25.44;nan;102084.66;5047544;28;19921;-86
2023/04/21 08:48:06;;;;;;;;;;;;;;;25.53;nan;102084.72;5050495;28;19921;-86
2023/04/21 08:50:32;;;;;;;;;;;;;;;25.59;nan;102073.25;5046148;28;19920;-86
2023/04/21 08:52:58;;;;;;;;;;;;;;;25.70;nan;102073.00;5041974;28;19963;-86
2023/04/21 08:55:28;;;;;;;;;;;;;;;25.76;nan;102071.72;5047702;28;19960;-86
2023/04/21 08:57:53;;;;;;;;;;;;;;;25.87;nan;102076.63;5046609;28;20584;-86
2023/04/21 09:00:19;;;;;;;;;;;;;;;26.05;nan;102073.91;5046383;28;19962;-86
2023/04/21 09:03:00;;;;;;;;;;;;;;;26.13;nan;102079.41;5046212;28;19971;-86
2023/04/21 09:05:27;;;;;;;;;;;;;;;26.19;nan;102075.34;5045584;28;19917;-85
2023/04/21 09:08:09;;;;;;;;;;;;;;;26.30;nan;102070.38;5048184;28;19920;-85
2023/04/21 09:10:50;;;;;;;;;;;;;;;26.32;nan;102068.09;5041707;28;20378;-86
2023/04/21 09:13:17;;;;;;;;;;;;;;;26.36;nan;102065.53;5045404;28;19920;-86
2023/04/21 09:15:46;;;;;;;;;;;;;;;26.38;nan;102063.28;5044034;28;20157;-85
2023/04/21 09:18:13;;;;;;;;;;;;;;;26.39;nan;102070.38;5046528;28;19928;-85
2023/04/21 09:20:38;;;;;;;;;;;;;;;26.48;nan;102079.44;5046293;28;20012;-86
2023/04/21 09:23:04;;;;;;;;;;;;;;;26.58;nan;102070.88;5045614;28;20016;-85
2023/04/21 09:25:31;;;;;;;;;;;;;;;26.66;nan;102075.56;5045148;28;19967;-86
2023/04/21 09:27:56;;;;;;;;;;;;;;;26.70;nan;102075.72;5043526;28;19927;-85
2023/04/21 09:30:22;;;;;;;;;;;;;;;26.77;nan;102073.28;5048260;28;19921;-85
2023/04/21 09:32:48;;;;;;;;;;;;;;;26.78;nan;102072.16;5042982;28;19920;-85
2023/04/21 09:35:13;;;;;;;;;;;;;;;26.82;nan;102072.31;5038767;28;20019;-86
2023/04/21 09:37:42;;;;;;;;;;;;;;;26.88;nan;102076.50;5049414;28;20023;-85
2023/04/21 09:40:07;;;;;;;;;;;;;;;26.94;nan;102070.50;5043352;28;20162;-86
2023/04/21 09:42:33;;;;;;;;;;;;;;;27.01;nan;102075.53;5053392;28;19924;-85
2023/04/21 09:44:59;;;;;;;;;;;;;;;27.06;nan;102067.91;5040149;28;19924;-85
2023/04/21 09:47:27;;;;;;;;;;;;;;;27.11;nan;102061.44;5042062;28;19925;-85
2023/04/21 09:49:53;;;;;;;;;;;;;;;27.17;nan;102062.88;5043173;28;19927;-85
2023/04/21 09:52:19;;;;;;;;;;;;;;;27.30;nan;102059.09;5042819;28;19921;-85
2023/04/21 09:54:59;;;;;;;;;;;;;;;27.42;nan;102060.31;5046516;28;19928;-85
2023/04/21 09:57:25;;;;;;;;;;;;;;;27.50;nan;102051.25;5045228;28;19932;-86
2023/04/21 09:59:58;;;;;;;;;;;;;;;27.58;nan;102066.88;5047926;28;19924;-86
2023/04/21 10:02:25;;;;;;;;;;;;;;;27.64;nan;102054.56;5041384;28;19925;-85
2023/04/21 10:04:51;;;;;;;;;;;;;;;27.63;nan;102052.97;5039295;28;19928;-85
2023/04/21 10:07:16;;;;;;;;;;;;;;;27.70;nan;102047.75;5045244;28;19920;-86
2023/04/21 10:09:52;;;;;;;;;;;;;;;27.69;nan;102051.66;5044733;28;20038;-86
2023/04/21 10:12:18;;;;;;;;;;;;;;;27.76;nan;102038.16;5044667;28;19931;-83
2023/04/21 10:14:43;;;;;;;;;;;;;;;27.80;nan;102047.34;5058142;28;19925;-84
2023/04/21 10:17:09;;;;;;;;;;;;;;;27.90;nan;102041.47;5051204;28;20067;-84
2023/04/21 10:19:38;;;;;;;;;;;;;;;27.98;nan;102032.31;5045244;28;20398;-84
2023/04/21 10:22:08;;;;;;;;;;;;;;;28.11;nan;102038.72;5045197;28;19963;-84
2023/04/21 10:24:39;;;;;;;;;;;;;;;28.24;nan;102036.84;5046882;28;19947;-84
2023/04/21 10:27:08;;;;;;;;;;;;;;;28.24;nan;102023.88;5046252;28;19952;-84
2023/04/21 10:29:33;;;;;;;;;;;;;;;28.29;nan;102031.16;5043209;28;19924;-85
2023/04/21 10:31:59;;;;;;;;;;;;;;;28.36;nan;102031.41;5048948;28;19917;-84
2023/04/21 10:34:25;;;;;;;;;;;;;;;28.45;nan;102028.56;5048252;28;19920;-84
2023/04/21 10:37:06;;;;;;;;;;;;;;;28.46;nan;102025.47;5041826;28;19956;-84
2023/04/21 10:39:35;;;;;;;;;;;;;;;28.55;nan;102023.47;5050705;28;20271;-85
2023/04/21 10:42:12;;;;;;;;;;;;;;;28.61;nan;102014.97;5051480;28;19921;-83
2023/04/21 10:44:41;;;;;;;;;;;;;;;28.65;nan;102021.41;5040371;28;19921;-84
2023/04/21 10:47:07;;;;;;;;;;;;;;;28.73;nan;102017.75;5047387;28;19978;-84
2023/04/21 10:49:36;;;;;;;;;;;;;;;28.79;nan;102019.94;5049417;28;19924;-84
2023/04/21 10:52:02;;;;;;;;;;;;;;;28.86;nan;102016.66;5049346;28;20349;-84
2023/04/21 10:54:35;;;;;;;;;;;;;;;28.94;nan;102018.53;5049982;28;19921;-84
2023/04/21 10:57:00;;;;;;;;;;;;;;;28.97;nan;102012.31;5048013;28;19916;-84
2023/04/21 10:59:26;;;;;;;;;;;;;;;29.05;nan;102007.81;5045332;28;19920;-84
2023/04/21 11:01:51;;;;;;;;;;;;;;;29.12;nan;102008.88;5052824;28;20015;-84
2023/04/21 11:04:20;;;;;;;;;;;;;;;29.25;nan;102008.88;5049830;28;19916;-84
2023/04/21 11:07:04;;;;;;;;;;;;;;;29.25;nan;102009.69;5050626;28;19928;-85
2023/04/21 11:09:30;;;;;;;;;;;;;;;29.31;nan;102000.03;5049456;28;20027;-84
2023/04/21 11:11:59;;;;;;;;;;;;;;;29.43;nan;102001.97;5048345;28;19999;-84
2023/04/21 11:14:24;;;;;;;;;;;;;;;29.44;nan;101998.06;5049319;28;19920;-84
2023/04/21 11:16:50;;;;;;;;;;;;;;;29.45;nan;102003.28;5052571;28;19920;-85
2023/04/21 11:19:15;;;;;;;;;;;;;;;29.51;nan;101992.00;5047348;28;19927;-86
2023/04/21 11:21:41;;;;;;;;;;;;;;;29.64;nan;101996.38;5047997;28;19920;-84
2023/04/21 11:24:07;;;;;;;;;;;;;;;29.69;nan;101994.16;5053908;28;19920;-84
2023/04/21 11:26:37;;;;;;;;;;;;;;;29.76;nan;101988.03;5056133;28;19925;-86
2023/04/21 11:29:04;;;;;;;;;;;;;;;29.78;nan;101974.66;5054933;28;20014;-85
2023/04/21 11:31:30;;;;;;;;;;;;;;;29.81;nan;101990.56;5047993;28;20070;-84
2023/04/21 11:33:57;;;;;;;;;;;;;;;29.90;nan;101971.88;5055547;28;20035;-83
2023/04/21 11:36:22;;;;;;;;;;;;;;;30.02;nan;101974.63;5051026;28;19928;-84
2023/04/21 11:38:47;;;;;;;;;;;;;;;30.06;nan;101960.94;5045728;28;19924;-83
2023/04/21 11:41:19;;;;;;;;;;;;;;;30.10;nan;101964.59;5051743;28;19924;-83
2023/04/21 11:43:45;;;;;;;;;;;;;;;30.16;nan;101984.47;5050007;28;19978;-84
2023/04/21 11:46:17;;;;;;;;;;;;;;;30.17;nan;101970.34;5047400;28;19917;-83
2023/04/21 11:48:43;;;;;;;;;;;;;;;30.26;nan;101957.16;5047770;28;19931;-84
2023/04/21 11:51:17;;;;;;;;;;;;;;;30.28;nan;101952.06;5051416;28;19917;-83
2023/04/21 11:53:45;;;;;;;;;;;;;;;30.31;nan;101954.13;5035817;28;19945;-84
2023/04/21 11:56:10;;;;;;;;;;;;;;;30.34;nan;101956.19;5047677;28;20019;-84
2023/04/21 11:58:37;;;;;;;;;;;;;;;30.36;nan;101947.56;5046246;28;20062;-83
2023/04/21 12:01:06;;;;;;;;;;;;;;;30.36;nan;101945.59;5049029;28;19920;-82
2023/04/21 12:03:31;;;;;;;;;;;;;;;30.40;nan;101944.88;5044943;28;20510;-83
2023/04/21 12:05:57;;;;;;;;;;;;;;;30.51;nan;101937.66;5043361;28;20502;-83
2023/04/21 12:08:22;;;;;;;;;;;;;;;30.60;nan;101933.56;5046989;28;20469;-83
2023/04/21 12:10:48;;;;;;;;;;;;;;;30.72;nan;101941.00;5047664;28;19921;-84
2023/04/21 12:13:20;;;;;;;;;;;;;;;30.75;nan;101934.75;5043077;28;19923;-83
2023/04/21 12:15:47;;;;;;;;;;;;;;;30.79;nan;101929.31;5049547;28;20405;-83
2023/04/21 12:18:13;;;;;;;;;;;;;;;30.88;nan;101933.50;5047112;28;19921;-83
2023/04/21 12:20:47;;;;;;;;;;;;;;;30.97;nan;101928.59;5047953;28;19983;-83
2023/04/21 12:23:12;;;;;;;;;;;;;;;31.07;nan;101923.69;5046689;28;19924;-83
2023/04/21 12:25:37;;;;;;;;;;;;;;;31.14;nan;101929.38;5043988;28;19965;-84
2023/04/21 12:28:06;;;;;;;;;;;;;;;31.07;nan;101918.13;5047271;28;19971;-84
2023/04/21 12:30:32;;;;;;;;;;;;;;;31.09;nan;101919.38;5045447;28;20401;-83
2023/04/21 12:32:57;;;;;;;;;;;;;;;31.14;nan;101915.53;5041848;28;19924;-83
2023/04/21 12:35:22;;;;;;;;;;;;;;;31.12;nan;101917.84;5055806;28;19925;-83
2023/04/21 12:37:48;;;;;;;;;;;;;;;31.11;nan;101905.19;5044976;28;19924;-85
2023/04/21 12:40:13;;;;;;;;;;;;;;;31.20;nan;101914.09;5047964;28;20120;-83
2023/04/21 12:42:38;;;;;;;;;;;;;;;31.15;nan;101908.81;5046347;28;20263;-83
2023/04/21 12:45:05;;;;;;;;;;;;;;;31.12;nan;101906.78;5050224;28;20444;-83
2023/04/21 12:47:30;;;;;;;;;;;;;;;31.12;nan;101904.00;5048585;28;19927;-84
2023/04/21 12:49:56;;;;;;;;;;;;;;;31.22;nan;101897.94;5048776;28;20323;-83
2023/04/21 12:52:21;;;;;;;;;;;;;;;31.30;nan;101891.41;5046630;28;20544;-84
2023/04/21 12:54:46;;;;;;;;;;;;;;;31.39;nan;101891.97;5049775;28;20031;-84
2023/04/21 12:57:12;;;;;;;;;;;;;;;31.45;nan;101892.53;5043593;28;19921;-84
2023/04/21 12:59:37;;;;;;;;;;;;;;;31.39;nan;101894.75;5046552;28;19956;-83